Time;durP1;ratioP1;P1;durP2;ratioP2;P2;SDS_P1;SDS_P2;PMS_P1;PMS_P2;Temp;Humidity;BMP_temperature;BMP_pressure;BME280_temperature;BME280_humidity;BME280_pressure;Samples;Min_cycle;Max_cycle;Signal;HPM_P1;HPM_P2
2022/04/24 00:01:31;;;;;;;4.75;1.20;;;11.40;89.10;;;;;;5013055;28;20026;-74
2022/04/24 00:03:57;;;;;;;2.83;1.40;;;11.30;89.10;;;;;;5013645;28;20076;-74
2022/04/24 00:06:23;;;;;;;1.95;1.00;;;11.30;90.30;;;;;;5012962;28;20499;-74
2022/04/24 00:08:49;;;;;;;2.78;1.38;;;11.30;90.20;;;;;;5013000;28;20088;-74
2022/04/24 00:11:15;;;;;;;1.48;0.88;;;11.30;90.60;;;;;;4998972;28;20065;-74
2022/04/24 00:13:42;;;;;;;2.33;1.08;;;11.20;91.10;;;;;;4999129;28;20061;-74
2022/04/24 00:16:08;;;;;;;2.28;1.38;;;11.20;91.90;;;;;;5016507;28;20533;-74
2022/04/24 00:18:35;;;;;;;2.88;1.70;;;11.20;91.70;;;;;;5016664;28;20026;-74
2022/04/24 00:21:01;;;;;;;5.53;1.48;;;11.20;92.70;;;;;;4998800;28;20021;-74
2022/04/24 00:23:28;;;;;;;2.33;1.30;;;11.20;93.00;;;;;;4998867;28;20502;-74
2022/04/24 00:25:53;;;;;;;2.40;1.70;;;11.10;92.50;;;;;;5016328;28;20041;-74
2022/04/24 00:28:19;;;;;;;2.60;1.52;;;11.10;93.10;;;;;;4998684;28;20030;-74
2022/04/24 00:30:44;;;;;;;2.78;1.42;;;11.10;94.20;;;;;;5016741;28;20033;-74
2022/04/24 00:33:10;;;;;;;3.08;1.80;;;11.00;94.10;;;;;;5016289;28;20022;-74
2022/04/24 00:35:36;;;;;;;2.92;1.63;;;11.00;94.70;;;;;;5016207;28;20053;-74
2022/04/24 00:38:04;;;;;;;2.45;1.60;;;10.90;95.00;;;;;;5016461;28;20100;-74
2022/04/24 00:40:30;;;;;;;3.03;1.92;;;10.80;95.50;;;;;;5016632;28;20434;-74
2022/04/24 00:42:55;;;;;;;6.00;1.40;;;10.80;96.30;;;;;;5016244;28;20026;-74
2022/04/24 00:45:21;;;;;;;4.80;2.10;;;10.80;96.50;;;;;;5015974;28;20484;-74
2022/04/24 00:47:47;;;;;;;3.70;1.63;;;10.70;96.90;;;;;;5015943;28;20033;-73
2022/04/24 00:50:13;;;;;;;4.22;1.55;;;10.70;97.40;;;;;;5015951;28;20426;-74
2022/04/24 00:52:39;;;;;;;4.68;2.30;;;10.70;98.90;;;;;;4998583;28;20034;-72
2022/04/24 00:55:05;;;;;;;3.03;1.75;;;10.60;99.40;;;;;;5015984;28;20049;-77
2022/04/24 00:57:31;;;;;;;3.38;1.92;;;10.50;99.50;;;;;;5016491;28;20041;-75
2022/04/24 00:59:57;;;;;;;5.88;2.20;;;10.50;99.90;;;;;;5016102;28;20026;-74
2022/04/24 01:02:23;;;;;;;4.07;2.45;;;10.30;99.90;;;;;;5015714;28;20390;-74
2022/04/24 01:04:48;;;;;;;4.03;2.03;;;10.30;99.90;;;;;;5015939;28;20065;-74
2022/04/24 01:07:14;;;;;;;4.82;2.85;;;10.30;99.90;;;;;;5015661;28;20041;-74
2022/04/24 01:09:40;;;;;;;3.97;2.25;;;10.30;99.90;;;;;;4998318;28;20018;-74
2022/04/24 01:12:07;;;;;;;5.50;2.78;;;10.30;99.90;;;;;;5015705;28;20094;-74
2022/04/24 01:14:33;;;;;;;4.47;3.00;;;10.20;99.90;;;;;;5016776;28;20018;-74
2022/04/24 01:17:00;;;;;;;3.88;2.22;;;10.20;99.90;;;;;;5015774;28;20391;-74
2022/04/24 01:19:26;;;;;;;3.13;2.17;;;10.20;99.90;;;;;;5015506;28;20018;-74
2022/04/24 01:21:52;;;;;;;6.95;2.95;;;10.20;99.90;;;;;;5015412;28;20032;-74
2022/04/24 01:24:20;;;;;;;4.20;2.85;;;10.10;99.90;;;;;;5015462;28;20092;-74
2022/04/24 01:26:46;;;;;;;7.43;2.85;;;10.20;99.90;;;;;;5015648;28;20113;-74
2022/04/24 01:29:12;;;;;;;6.63;3.00;;;10.20;99.90;;;;;;5015458;28;20049;-74
2022/04/24 01:31:41;;;;;;;6.78;2.95;;;10.20;99.90;;;;;;5015657;28;20404;-74
2022/04/24 01:34:07;;;;;;;5.50;3.13;;;10.10;99.90;;;;;;5015261;28;20364;-74
2022/04/24 01:36:33;;;;;;;6.78;3.33;;;10.10;99.90;;;;;;5015265;28;20025;-74
2022/04/24 01:38:58;;;;;;;5.43;3.40;;;10.10;99.90;;;;;;5015315;28;20112;-75
2022/04/24 01:41:24;;;;;;;4.57;2.90;;;10.00;99.90;;;;;;4997690;28;20527;-75
2022/04/24 01:43:49;;;;;;;8.52;3.33;;;10.00;99.90;;;;;;5015212;28;20030;-75
2022/04/24 01:46:15;;;;;;;5.10;2.75;;;9.90;99.90;;;;;;5015324;28;20021;-75
2022/04/24 01:48:41;;;;;;;5.82;3.55;;;10.00;99.90;;;;;;5015717;28;20030;-75
2022/04/24 01:51:09;;;;;;;10.75;4.32;;;9.90;99.90;;;;;;5015595;28;20026;-75
2022/04/24 01:53:35;;;;;;;6.47;3.72;;;10.00;99.90;;;;;;4998290;28;20041;-75
2022/04/24 01:56:03;;;;;;;6.78;3.72;;;10.00;99.90;;;;;;4997627;28;20033;-75
2022/04/24 01:58:28;;;;;;;6.75;3.70;;;9.90;99.90;;;;;;5015507;28;20041;-75
2022/04/24 02:00:54;;;;;;;6.75;3.50;;;9.90;99.90;;;;;;5015107;28;20026;-75
2022/04/24 02:03:21;;;;;;;7.57;4.03;;;9.80;99.90;;;;;;5015183;28;20045;-75
2022/04/24 02:05:47;;;;;;;9.20;3.67;;;9.80;99.90;;;;;;4997270;28;20497;-75
2022/04/24 02:08:13;;;;;;;8.70;3.92;;;9.80;99.90;;;;;;4997883;28;20022;-75
2022/04/24 02:10:40;;;;;;;7.10;4.00;;;9.70;99.90;;;;;;5014774;28;20022;-75
2022/04/24 02:13:06;;;;;;;7.80;4.25;;;9.70;99.90;;;;;;5014930;28;20095;-75
2022/04/24 02:15:31;;;;;;;10.68;4.38;;;9.70;99.90;;;;;;5015435;28;20029;-75
2022/04/24 02:17:57;;;;;;;7.18;3.95;;;9.60;99.90;;;;;;4997438;28;20065;-75
2022/04/24 02:20:23;;;;;;;7.18;4.32;;;9.60;99.90;;;;;;4997339;28;20030;-75
2022/04/24 02:22:50;;;;;;;7.15;4.13;;;9.60;99.90;;;;;;5014783;28;20442;-75
2022/04/24 02:25:17;;;;;;;18.70;4.50;;;9.50;99.90;;;;;;5014730;28;20042;-75
2022/04/24 02:27:43;;;;;;;7.25;3.83;;;9.50;99.90;;;;;;5014579;28;20040;-75
2022/04/24 02:30:09;;;;;;;11.35;5.35;;;9.50;99.90;;;;;;5014479;28;20105;-75
2022/04/24 02:32:34;;;;;;;6.68;3.78;;;9.50;99.90;;;;;;4996645;28;20048;-74
2022/04/24 02:35:00;;;;;;;10.48;4.50;;;9.50;99.90;;;;;;5014762;28;20097;-75
2022/04/24 02:37:26;;;;;;;11.30;4.07;;;9.50;99.90;;;;;;4996928;28;20022;-75
2022/04/24 02:39:52;;;;;;;8.82;4.05;;;9.50;99.90;;;;;;4997020;28;20025;-75
2022/04/24 02:42:18;;;;;;;7.80;4.28;;;9.50;99.90;;;;;;5015300;28;20018;-75
2022/04/24 02:44:43;;;;;;;10.43;4.47;;;9.50;99.90;;;;;;4996617;28;20022;-75
2022/04/24 02:47:09;;;;;;;6.05;3.67;;;9.50;99.90;;;;;;5014227;28;20037;-75
2022/04/24 02:49:34;;;;;;;8.68;4.00;;;9.50;99.90;;;;;;5015521;28;20022;-75
2022/04/24 02:52:00;;;;;;;9.13;4.10;;;9.50;99.90;;;;;;5014097;28;20026;-75
2022/04/24 02:54:25;;;;;;;8.85;4.20;;;9.40;99.90;;;;;;5014227;28;20382;-75
2022/04/24 02:56:51;;;;;;;7.75;3.78;;;9.40;99.90;;;;;;4996467;28;20026;-75
2022/04/24 02:59:16;;;;;;;9.27;4.18;;;9.40;99.90;;;;;;4996500;28;20026;-75
2022/04/24 03:01:44;;;;;;;7.50;3.55;;;9.40;99.90;;;;;;5014401;28;20104;-75
2022/04/24 03:04:10;;;;;;;8.93;3.42;;;9.40;99.90;;;;;;4996479;28;20038;-75
2022/04/24 03:06:36;;;;;;;9.38;3.92;;;9.40;99.90;;;;;;4996174;28;20096;-75
2022/04/24 03:09:01;;;;;;;7.10;3.85;;;9.30;99.90;;;;;;5013891;28;20022;-75
2022/04/24 03:11:27;;;;;;;7.25;3.60;;;9.30;99.90;;;;;;5015005;28;20037;-75
2022/04/24 03:13:52;;;;;;;6.95;3.80;;;9.30;99.90;;;;;;5014301;28;20018;-75
2022/04/24 03:16:18;;;;;;;6.30;3.58;;;9.20;99.90;;;;;;5014133;28;20517;-75
2022/04/24 03:18:43;;;;;;;8.57;3.50;;;9.30;99.90;;;;;;5014309;28;20541;-75
2022/04/24 03:21:09;;;;;;;7.18;3.65;;;9.20;99.90;;;;;;5013988;28;20026;-75
2022/04/24 03:23:34;;;;;;;6.35;3.13;;;9.20;99.90;;;;;;5014045;28;20030;-75
2022/04/24 03:26:00;;;;;;;6.65;3.78;;;9.20;99.90;;;;;;5013763;28;20394;-75
2022/04/24 03:28:26;;;;;;;6.45;3.58;;;9.10;99.90;;;;;;5014260;28;20490;-75
2022/04/24 03:30:51;;;;;;;5.53;3.20;;;9.10;99.90;;;;;;5014447;28;20045;-75
2022/04/24 03:33:17;;;;;;;7.20;3.28;;;9.00;99.90;;;;;;5014566;28;20025;-75
2022/04/24 03:35:43;;;;;;;8.45;3.05;;;9.00;99.90;;;;;;5013897;28;20486;-75
2022/04/24 03:38:08;;;;;;;10.77;3.95;;;9.00;99.90;;;;;;5014033;28;20034;-75
2022/04/24 03:40:34;;;;;;;8.25;3.60;;;9.00;99.90;;;;;;5014073;28;20049;-76
2022/04/24 03:42:59;;;;;;;7.90;3.40;;;9.00;99.90;;;;;;4996110;28;20018;-76
2022/04/24 03:45:25;;;;;;;8.52;3.47;;;9.00;99.90;;;;;;5016405;28;20113;-76
2022/04/24 03:47:51;;;;;;;5.93;3.17;;;8.90;99.90;;;;;;5017712;28;20040;-75
2022/04/24 03:50:19;;;;;;;7.57;3.13;;;8.80;99.90;;;;;;4999882;28;20076;-75
2022/04/24 03:52:45;;;;;;;6.72;3.15;;;8.90;99.90;;;;;;5017865;28;20361;-75
2022/04/24 03:55:10;;;;;;;7.35;3.17;;;8.90;99.90;;;;;;5017383;28;20026;-75
2022/04/24 03:57:36;;;;;;;5.00;2.28;;;8.80;99.90;;;;;;5017780;28;20022;-75
2022/04/24 04:00:03;;;;;;;7.60;3.38;;;8.70;99.90;;;;;;5017667;28;20064;-75
2022/04/24 04:02:29;;;;;;;5.82;3.35;;;8.70;99.90;;;;;;4999609;28;20017;-75
2022/04/24 04:04:55;;;;;;;7.82;3.00;;;8.70;99.90;;;;;;5017460;28;20044;-75
2022/04/24 04:07:20;;;;;;;7.28;3.63;;;8.70;99.90;;;;;;5017294;28;20029;-75
2022/04/24 04:09:46;;;;;;;6.25;3.17;;;8.60;99.90;;;;;;5017799;28;20018;-75
2022/04/24 04:12:12;;;;;;;7.35;2.97;;;8.60;99.90;;;;;;5016876;28;20025;-75
2022/04/24 04:14:37;;;;;;;4.85;2.47;;;8.60;99.90;;;;;;4999356;28;20041;-75
2022/04/24 04:17:03;;;;;;;7.75;2.70;;;8.60;99.90;;;;;;4999467;28;20398;-75
2022/04/24 04:19:29;;;;;;;8.13;3.22;;;8.60;99.90;;;;;;4999315;28;20116;-75
2022/04/24 04:21:54;;;;;;;6.95;3.05;;;8.60;99.90;;;;;;5016805;28;20118;-75
2022/04/24 04:24:20;;;;;;;5.53;3.08;;;8.60;99.90;;;;;;5016772;28;20510;-75
2022/04/24 04:26:46;;;;;;;4.85;2.53;;;8.60;99.90;;;;;;5016772;28;20037;-75
2022/04/24 04:29:11;;;;;;;6.13;3.15;;;8.60;99.90;;;;;;5016642;28;20017;-75
2022/04/24 04:31:37;;;;;;;5.68;2.63;;;8.50;99.90;;;;;;5016954;28;20108;-75
2022/04/24 04:34:02;;;;;;;5.03;2.55;;;8.50;99.90;;;;;;4998828;28;20151;-75
2022/04/24 04:36:28;;;;;;;6.05;2.45;;;8.50;99.90;;;;;;4998992;28;20018;-75
2022/04/24 04:38:54;;;;;;;7.35;2.55;;;8.50;99.90;;;;;;5016718;28;20018;-75
2022/04/24 04:41:19;;;;;;;6.38;3.15;;;8.50;99.90;;;;;;5016233;28;20025;-75
2022/04/24 04:43:45;;;;;;;7.70;3.95;;;8.40;99.90;;;;;;4998849;28;20030;-75
2022/04/24 04:46:11;;;;;;;6.28;2.60;;;8.50;99.90;;;;;;4998768;28;20100;-75
2022/04/24 04:48:36;;;;;;;5.07;2.35;;;8.50;99.90;;;;;;5016254;28;20072;-75
2022/04/24 04:51:02;;;;;;;9.07;2.90;;;8.60;99.90;;;;;;5016429;28;20065;-75
2022/04/24 04:53:27;;;;;;;5.93;2.42;;;8.50;99.90;;;;;;4998661;28;20022;-75
2022/04/24 04:55:53;;;;;;;5.57;2.83;;;8.60;99.90;;;;;;5016146;28;20038;-75
2022/04/24 04:58:18;;;;;;;4.97;2.55;;;8.60;99.90;;;;;;5016404;28;20053;-75
2022/04/24 05:00:44;;;;;;;3.38;2.13;;;8.60;99.90;;;;;;5016021;28;20101;-75
2022/04/24 05:03:10;;;;;;;6.47;2.83;;;8.60;99.90;;;;;;4998380;28;20462;-75
2022/04/24 05:05:35;;;;;;;4.88;2.90;;;8.60;99.90;;;;;;5016162;28;20069;-75
2022/04/24 05:08:01;;;;;;;3.42;2.05;;;8.70;99.90;;;;;;5016488;28;20033;-75
2022/04/24 05:10:26;;;;;;;8.32;2.58;;;8.70;99.90;;;;;;5015944;28;20026;-75
2022/04/24 05:12:52;;;;;;;4.53;2.38;;;8.70;99.90;;;;;;5016389;28;20080;-75
2022/04/24 05:15:19;;;;;;;7.00;2.78;;;8.80;99.90;;;;;;5016044;28;20026;-75
2022/04/24 05:17:45;;;;;;;6.88;2.75;;;8.80;99.90;;;;;;4998664;28;20030;-75
2022/04/24 05:20:11;;;;;;;6.75;2.13;;;8.90;99.90;;;;;;4998310;28;20029;-75
2022/04/24 05:22:38;;;;;;;3.58;2.10;;;8.90;99.90;;;;;;5016079;28;20026;-75
2022/04/24 05:25:05;;;;;;;4.25;2.30;;;8.90;99.90;;;;;;4998132;28;20042;-75
2022/04/24 05:27:30;;;;;;;4.65;2.35;;;8.90;99.90;;;;;;5015907;28;20156;-75
2022/04/24 05:29:56;;;;;;;3.47;1.98;;;9.00;99.90;;;;;;5015875;28;20097;-75
2022/04/24 05:32:22;;;;;;;5.82;2.97;;;9.10;99.90;;;;;;5015555;28;20545;-74
2022/04/24 05:34:47;;;;;;;3.75;1.65;;;9.10;99.90;;;;;;4998105;28;20061;-74
2022/04/24 05:37:13;;;;;;;3.63;2.00;;;9.10;99.90;;;;;;5015447;28;20026;-74
2022/04/24 05:39:38;;;;;;;3.67;2.28;;;9.10;99.90;;;;;;4997899;28;20037;-77
2022/04/24 05:42:04;;;;;;;4.72;2.00;;;9.20;99.90;;;;;;4997844;28;20394;-77
2022/04/24 05:44:30;;;;;;;9.57;2.05;;;9.20;99.90;;;;;;5015282;28;20041;-76
2022/04/24 05:46:55;;;;;;;3.35;1.60;;;9.20;99.90;;;;;;4998006;28;20034;-76
2022/04/24 05:49:21;;;;;;;3.80;2.20;;;9.30;99.90;;;;;;5015038;28;20054;-76
2022/04/24 05:51:46;;;;;;;7.28;1.90;;;9.40;99.90;;;;;;5015065;28;20145;-77
2022/04/24 05:54:12;;;;;;;5.10;2.50;;;9.40;99.90;;;;;;5015209;28;20024;-77
2022/04/24 05:56:38;;;;;;;5.80;2.10;;;9.50;99.90;;;;;;4997544;28;20033;-77
2022/04/24 05:59:04;;;;;;;3.40;2.05;;;9.50;99.90;;;;;;5015528;28;20025;-77
2022/04/24 06:01:30;;;;;;;4.97;2.08;;;9.50;99.90;;;;;;4997484;28;20026;-77
2022/04/24 06:03:56;;;;;;;7.88;1.88;;;9.60;99.90;;;;;;4997315;28;20028;-76
2022/04/24 06:06:22;;;;;;;3.78;2.05;;;9.70;99.90;;;;;;5015002;28;20105;-76
2022/04/24 06:08:47;;;;;;;4.30;2.20;;;9.70;99.90;;;;;;4996900;28;20458;-77
2022/04/24 06:11:13;;;;;;;7.00;2.08;;;9.80;99.90;;;;;;5014735;28;20396;-77
2022/04/24 06:13:42;;;;;;;2.90;2.35;;;9.80;99.90;;;;;;5014829;28;20026;-77
2022/04/24 06:16:08;;;;;;;4.85;1.73;;;9.80;99.90;;;;;;4997239;28;20483;-76
2022/04/24 06:18:33;;;;;;;4.18;2.13;;;9.90;99.90;;;;;;5015115;28;20029;-76
2022/04/24 06:20:59;;;;;;;3.53;1.88;;;9.90;99.90;;;;;;4997046;28;20108;-77
2022/04/24 06:23:27;;;;;;;4.32;1.88;;;10.00;99.90;;;;;;5015110;28;20033;-77
2022/04/24 06:25:52;;;;;;;3.75;1.95;;;10.00;99.90;;;;;;5014443;28;20021;-77
2022/04/24 06:28:18;;;;;;;3.70;2.17;;;10.10;99.90;;;;;;4996788;28;20068;-77
2022/04/24 06:30:44;;;;;;;4.07;1.83;;;10.10;99.90;;;;;;5014297;28;20029;-77
2022/04/24 06:33:11;;;;;;;3.22;1.73;;;10.10;99.90;;;;;;5014819;28;20018;-77
2022/04/24 06:35:37;;;;;;;3.35;1.75;;;10.20;99.90;;;;;;5014627;28;20018;-77
2022/04/24 06:38:04;;;;;;;3.67;1.85;;;10.30;99.90;;;;;;4996859;28;20026;-77
2022/04/24 06:40:30;;;;;;;3.97;1.75;;;10.40;99.90;;;;;;4997003;28;20022;-77
2022/04/24 06:43:06;;;;;;;4.00;1.60;;;10.40;99.90;;;;;;5014446;28;20431;-77
2022/04/24 06:45:33;;;;;;;4.13;2.30;;;10.50;99.90;;;;;;5014704;28;20426;-77
2022/04/24 06:48:01;;;;;;;4.13;2.20;;;10.60;99.90;;;;;;5014130;28;20030;-77
2022/04/24 06:50:28;;;;;;;3.17;1.80;;;10.60;99.90;;;;;;5014199;28;20025;-77
2022/04/24 06:53:07;;;;;;;5.72;1.77;;;10.70;99.90;;;;;;5014553;28;20014;-77
2022/04/24 06:55:36;;;;;;;2.78;1.55;;;10.80;99.90;;;;;;5014237;28;20528;-77
2022/04/24 06:58:03;;;;;;;2.47;1.77;;;10.80;99.90;;;;;;4996689;28;20026;-77
2022/04/24 07:00:30;;;;;;;6.25;1.83;;;10.90;99.90;;;;;;4996684;28;20402;-76
2022/04/24 07:02:55;;;;;;;6.20;1.52;;;11.00;99.90;;;;;;4996333;28;20029;-76
2022/04/24 07:05:23;;;;;;;3.25;1.67;;;11.10;99.90;;;;;;4996419;28;20026;-76
2022/04/24 07:07:49;;;;;;;2.72;1.77;;;11.20;99.90;;;;;;5013932;28;20426;-76
2022/04/24 07:10:15;;;;;;;3.53;1.70;;;11.20;99.90;;;;;;5014197;28;20014;-76
2022/04/24 07:12:51;;;;;;;13.35;1.50;;;11.30;99.90;;;;;;5014090;28;20077;-76
2022/04/24 07:15:19;;;;;;;3.05;1.48;;;11.30;99.90;;;;;;5014548;28;20530;-77
2022/04/24 07:17:45;;;;;;;3.92;2.15;;;11.40;99.90;;;;;;5014434;28;20026;-77
2022/04/24 07:20:13;;;;;;;3.88;1.63;;;11.50;99.90;;;;;;5014524;28;20022;-77
2022/04/24 07:22:47;;;;;;;5.22;1.92;;;11.60;99.90;;;;;;5014452;28;20083;-77
2022/04/24 07:25:14;;;;;;;4.20;1.83;;;11.80;99.90;;;;;;5037020;22;20042;-75
2022/04/24 07:27:40;;;;;;;4.15;2.30;;;11.90;99.90;;;;;;5033141;28;20500;-75
2022/04/24 07:30:13;;;;;;;4.22;1.60;;;12.00;99.90;;;;;;5015874;28;20116;-75
2022/04/24 07:32:40;;;;;;;3.05;1.63;;;12.00;99.90;;;;;;5015504;28;20117;-75
2022/04/24 07:35:07;;;;;;;4.05;1.50;;;12.10;99.60;;;;;;5015612;28;20540;-75
2022/04/24 07:37:33;;;;;;;5.40;1.80;;;12.20;99.20;;;;;;5033525;28;20148;-76
2022/04/24 07:39:58;;;;;;;2.67;1.60;;;12.20;99.30;;;;;;5015824;28;20116;-75
2022/04/24 07:42:24;;;;;;;6.03;2.33;;;12.20;99.70;;;;;;5033586;28;20467;-76
2022/04/24 07:44:51;;;;;;;4.25;2.05;;;12.20;98.60;;;;;;5033173;28;20025;-76
2022/04/24 07:47:16;;;;;;;3.90;1.67;;;12.30;99.90;;;;;;5015208;28;20017;-76
2022/04/24 07:49:42;;;;;;;7.32;2.58;;;12.50;99.00;;;;;;5033007;28;20033;-76
2022/04/24 07:52:07;;;;;;;3.15;1.85;;;12.60;98.10;;;;;;5015237;28;20048;-76
2022/04/24 07:54:33;;;;;;;4.45;1.83;;;12.80;97.00;;;;;;5033233;28;20467;-76
2022/04/24 07:56:58;;;;;;;5.80;2.47;;;12.90;96.90;;;;;;5015258;28;20032;-76
2022/04/24 07:59:24;;;;;;;5.80;1.98;;;12.90;96.70;;;;;;5015176;28;20025;-76
2022/04/24 08:01:51;;;;;;;3.45;1.60;;;13.00;95.60;;;;;;5015104;28;20438;-75
2022/04/24 08:04:17;;;;;;;3.47;1.75;;;13.10;96.30;;;;;;5015135;28;20021;-75
2022/04/24 08:06:43;;;;;;;2.42;1.67;;;13.20;94.60;;;;;;5015110;28;20033;-75
2022/04/24 08:09:08;;;;;;;4.47;2.72;;;13.30;95.20;;;;;;5032845;28;20109;-75
2022/04/24 08:11:34;;;;;;;7.97;1.92;;;13.40;94.20;;;;;;5032663;28;20059;-75
2022/04/24 08:13:59;;;;;;;3.80;1.40;;;13.60;94.40;;;;;;5032803;28;20026;-75
2022/04/24 08:16:26;;;;;;;5.65;1.55;;;13.80;90.90;;;;;;5033270;28;20022;-75
2022/04/24 08:18:52;;;;;;;3.08;1.17;;;14.00;91.30;;;;;;5032666;28;20018;-75
2022/04/24 08:21:18;;;;;;;3.25;1.83;;;13.80;90.90;;;;;;5014968;28;20120;-75
2022/04/24 08:23:44;;;;;;;5.13;1.75;;;14.00;92.10;;;;;;5014912;28;20112;-76
2022/04/24 08:26:10;;;;;;;2.90;1.58;;;14.10;91.90;;;;;;5032514;28;20045;-75
2022/04/24 08:28:36;;;;;;;2.95;1.63;;;14.20;92.60;;;;;;5032800;28;20033;-75
2022/04/24 08:31:02;;;;;;;2.67;1.50;;;14.30;92.00;;;;;;5016614;28;20017;-75
2022/04/24 08:33:28;;;;;;;2.42;1.30;;;14.50;91.30;;;;;;5036151;28;20018;-75
2022/04/24 08:35:53;;;;;;;3.17;1.83;;;14.50;89.20;;;;;;5018392;28;20017;-75
2022/04/24 08:38:19;;;;;;;4.60;1.75;;;14.60;88.00;;;;;;5018305;28;20026;-75
2022/04/24 08:40:46;;;;;;;2.42;1.38;;;14.70;90.20;;;;;;5036141;28;20034;-75
2022/04/24 08:43:15;;;;;;;3.78;1.58;;;14.80;85.50;;;;;;5018194;28;20152;-75
2022/04/24 08:45:42;;;;;;;;;;;14.90;84.20;;;;;;5036381;28;20028;-75
2022/04/24 08:48:08;;;;;;;2.22;1.25;;;14.90;84.90;;;;;;5035809;28;19909;-75
2022/04/24 08:50:33;;;;;;;2.55;1.50;;;15.00;84.50;;;;;;5035727;28;20079;-75
2022/04/24 08:53:00;;;;;;;2.83;1.08;;;15.00;82.70;;;;;;5035687;28;20029;-75
2022/04/24 08:55:27;;;;;;;2.85;1.67;;;15.20;83.00;;;;;;5035584;28;20022;-75
2022/04/24 08:57:53;;;;;;;2.53;1.38;;;15.20;82.20;;;;;;5035612;28;20103;-75
2022/04/24 09:00:19;;;;;;;2.92;1.73;;;15.40;83.60;;;;;;5035602;28;20505;-75
2022/04/24 09:02:46;;;;;;;3.83;1.55;;;15.30;82.40;;;;;;5017598;28;20036;-75
2022/04/24 09:05:13;;;;;;;3.47;1.50;;;15.40;78.40;;;;;;5035415;28;20032;-75
2022/04/24 09:07:39;;;;;;;2.40;1.60;;;15.40;78.30;;;;;;5017414;28;20121;-75
2022/04/24 09:10:11;;;;;;;2.95;1.77;;;15.50;78.60;;;;;;5035591;28;20045;-76
2022/04/24 09:12:38;;;;;;;2.08;1.25;;;15.60;77.70;;;;;;5035301;28;20053;-76
2022/04/24 09:15:04;;;;;;;4.88;1.95;;;15.60;76.80;;;;;;5035297;28;20060;-75
2022/04/24 09:17:32;;;;;;;3.35;1.42;;;15.70;81.30;;;;;;5035271;28;20036;-75
2022/04/24 09:19:59;;;;;;;3.22;1.23;;;15.80;78.60;;;;;;5035143;28;20022;-75
2022/04/24 09:22:25;;;;;;;6.25;1.45;;;15.90;76.20;;;;;;5035137;28;20124;-75
2022/04/24 09:24:56;;;;;;;3.78;1.77;;;16.00;77.90;;;;;;5035101;28;20405;-76
2022/04/24 09:27:32;;;;;;;6.28;2.03;;;16.00;74.30;;;;;;5035065;28;20030;-76
2022/04/24 09:30:13;;;;;;;2.90;1.40;;;16.10;74.60;;;;;;5017350;28;20490;-75
2022/04/24 09:32:50;;;;;;;3.75;1.60;;;16.00;73.40;;;;;;5017248;28;20075;-76
2022/04/24 09:35:29;;;;;;;3.40;1.42;;;16.10;73.50;;;;;;5017363;28;20022;-76
2022/04/24 09:38:13;;;;;;;4.18;2.00;;;16.20;72.40;;;;;;5017162;28;20025;-76
2022/04/24 09:40:47;;;;;;;3.05;1.52;;;16.30;72.10;;;;;;5016976;28;20033;-75
2022/04/24 09:43:18;;;;;;;1.55;1.40;;;16.30;72.30;;;;;;5033734;28;20040;-75
2022/04/24 09:45:55;;;;;;;3.58;0.85;;;16.60;74.00;;;;;;5017053;28;20025;-76
2022/04/24 09:48:22;;;;;;;3.20;1.20;;;16.60;73.50;;;;;;5016892;28;20029;-76
2022/04/24 09:50:49;;;;;;;5.72;1.95;;;16.60;71.00;;;;;;5034841;28;20064;-76
2022/04/24 09:53:18;;;;;;;3.33;1.77;;;16.90;72.60;;;;;;5034595;28;20024;-77
2022/04/24 09:55:45;;;;;;;;;;;17.00;68.50;;;;;;5035388;28;20017;-76
2022/04/24 09:58:15;;;;;;;2.15;1.20;;;17.10;69.20;;;;;;5034543;28;19905;-76
2022/04/24 10:00:41;;;;;;;1.90;1.30;;;17.30;68.20;;;;;;5016727;28;20111;-75
2022/04/24 10:03:09;;;;;;;2.85;1.60;;;17.30;67.60;;;;;;5034402;28;20030;-75
2022/04/24 10:05:38;;;;;;;2.20;1.45;;;17.40;68.40;;;;;;5034464;28;20041;-74
2022/04/24 10:08:06;;;;;;;3.38;1.50;;;17.50;67.50;;;;;;5034284;28;20025;-74
2022/04/24 10:10:32;;;;;;;4.32;1.88;;;17.50;69.10;;;;;;5034563;28;20017;-74
2022/04/24 10:13:04;;;;;;;3.03;1.20;;;17.50;66.50;;;;;;5034215;28;20036;-75
2022/04/24 10:15:31;;;;;;;2.35;1.40;;;17.50;66.60;;;;;;5034781;28;20104;-74
2022/04/24 10:18:08;;;;;;;4.15;1.52;;;17.60;66.10;;;;;;5034244;28;20056;-74
2022/04/24 10:21:01;;;;;;;1.98;1.17;;;17.70;65.30;;;;;;5034342;28;20039;-75
2022/04/24 10:23:29;;;;;;;8.13;1.50;;;17.90;66.90;;;;;;5034338;28;20017;-76
2022/04/24 10:25:54;;;;;;;3.40;1.60;;;18.00;62.80;;;;;;5016321;28;20075;-75
2022/04/24 10:28:21;;;;;;;2.47;0.98;;;18.10;64.30;;;;;;5034201;28;20021;-77
2022/04/24 10:31:00;;;;;;;2.53;1.23;;;18.20;59.80;;;;;;5033998;28;20021;-74
2022/04/24 10:33:32;;;;;;;3.47;1.30;;;18.30;62.40;;;;;;5033860;28;20095;-75
2022/04/24 10:36:18;;;;;;;3.33;1.17;;;18.30;59.10;;;;;;5034374;28;20048;-75
2022/04/24 10:39:00;;;;;;;3.53;1.50;;;18.40;60.90;;;;;;5033928;28;20025;-74
2022/04/24 10:41:30;;;;;;;3.70;1.98;;;18.50;59.70;;;;;;5015942;28;20471;-76
2022/04/24 10:44:12;;;;;;;3.45;1.80;;;18.60;60.40;;;;;;5016291;28;20510;-76
2022/04/24 10:46:42;;;;;;;1.73;1.40;;;18.70;59.50;;;;;;5033564;28;20408;-77
2022/04/24 10:49:12;;;;;;;4.47;1.25;;;18.80;59.00;;;;;;5016039;28;20052;-74
2022/04/24 10:51:59;;;;;;;2.67;1.70;;;18.80;59.30;;;;;;5015833;28;20156;-74
2022/04/24 10:54:33;;;;;;;2.90;1.73;;;19.10;62.60;;;;;;5033299;28;20029;-74
2022/04/24 10:56:59;;;;;;;2.53;1.60;;;19.30;59.20;;;;;;5033556;28;20386;-74
2022/04/24 10:59:25;;;;;;;3.92;1.92;;;19.40;59.60;;;;;;5033425;28;20025;-74
2022/04/24 11:01:55;;;;;;;3.15;1.50;;;19.40;59.00;;;;;;5033673;28;20014;-74
2022/04/24 11:04:25;;;;;;;2.53;1.60;;;19.30;57.60;;;;;;5033820;28;20037;-74
2022/04/24 11:07:04;;;;;;;2.10;1.15;;;19.30;58.10;;;;;;5033233;28;20068;-74
2022/04/24 11:09:32;;;;;;;3.00;1.30;;;19.50;57.30;;;;;;5033909;28;20025;-74
2022/04/24 11:12:06;;;;;;;5.95;1.83;;;19.60;56.20;;;;;;5033699;28;20096;-76
2022/04/24 11:14:32;;;;;;;2.15;1.23;;;19.80;57.40;;;;;;5033321;28;20046;-76
2022/04/24 11:17:00;;;;;;;1.20;0.80;;;20.00;55.90;;;;;;5015596;28;20057;-75
2022/04/24 11:19:28;;;;;;;5.97;1.42;;;20.20;54.80;;;;;;5033414;28;20386;-75
2022/04/24 11:21:59;;;;;;;3.30;1.38;;;20.30;52.00;;;;;;5033510;28;20026;-76
2022/04/24 11:24:26;;;;;;;4.45;1.58;;;20.20;50.50;;;;;;5033211;28;20494;-74
2022/04/24 11:26:52;;;;;;;4.72;1.30;;;20.20;50.50;;;;;;5033388;28;20018;-74
2022/04/24 11:29:20;;;;;;;1.17;0.77;;;20.30;53.10;;;;;;5033147;28;20471;-74
2022/04/24 11:31:54;;;;;;;2.47;1.25;;;20.50;54.20;;;;;;5033999;28;20021;-74
2022/04/24 11:34:24;;;;;;;2.28;1.45;;;20.50;54.00;;;;;;5033231;28;20021;-74
2022/04/24 11:36:54;;;;;;;1.73;0.90;;;20.70;52.20;;;;;;5033570;28;20402;-76
2022/04/24 11:39:20;;;;;;;1.58;1.30;;;20.80;50.10;;;;;;5033040;28;20104;-75
2022/04/24 11:41:46;;;;;;;2.05;1.35;;;20.90;49.70;;;;;;5033036;28;20045;-74
2022/04/24 11:50:13;;;;;;;4.22;0.93;;;21.20;49.20;;;;;;5034122;28;20036;-74
2022/04/24 11:52:46;;;;;;;4.88;1.27;;;21.50;50.50;;;;;;5032824;28;20029;-74
2022/04/24 11:55:15;;;;;;;2.20;1.13;;;21.60;49.00;;;;;;5015200;28;20034;-74
2022/04/24 11:57:41;;;;;;;1.45;0.80;;;21.70;46.50;;;;;;5033165;28;20028;-74
2022/04/24 12:00:09;;;;;;;3.20;1.02;;;21.50;48.00;;;;;;5032848;28;20029;-74
2022/04/24 12:02:35;;;;;;;2.30;0.88;;;21.50;48.70;;;;;;5015091;28;20539;-74
2022/04/24 12:05:07;;;;;;;2.17;1.13;;;21.60;49.20;;;;;;5033088;28;20030;-74
2022/04/24 12:07:33;;;;;;;2.63;1.00;;;21.60;48.80;;;;;;5018933;28;20024;-74
2022/04/24 12:10:01;;;;;;;1.50;0.95;;;21.70;49.70;;;;;;5018897;28;20022;-74
2022/04/24 12:12:27;;;;;;;3.95;1.05;;;21.70;47.20;;;;;;5018838;28;20419;-74
2022/04/24 12:14:53;;;;;;;4.32;0.95;;;21.90;45.40;;;;;;5036482;28;20100;-74
2022/04/24 12:17:19;;;;;;;1.15;0.52;;;22.00;46.90;;;;;;5036481;28;20029;-74
2022/04/24 12:19:54;;;;;;;1.92;0.55;;;22.30;46.10;;;;;;5036949;28;20026;-74
2022/04/24 12:22:27;;;;;;;2.72;0.60;;;22.30;43.30;;;;;;5036497;28;20092;-75
2022/04/24 12:24:53;;;;;;;1.60;0.40;;;22.40;45.00;;;;;;5036309;28;20056;-76
2022/04/24 12:27:20;;;;;;;6.05;0.88;;;22.70;44.70;;;;;;5036261;28;20470;-75
2022/04/24 12:29:50;;;;;;;2.05;0.30;;;22.90;44.40;;;;;;5036162;28;20045;-75
2022/04/24 12:32:17;;;;;;;1.10;0.50;;;23.20;42.50;;;;;;5018627;28;20383;-74
2022/04/24 12:34:46;;;;;;;1.98;0.40;;;23.30;41.70;;;;;;5036084;28;20021;-74
2022/04/24 12:37:27;;;;;;;2.22;0.38;;;23.20;41.60;;;;;;5036359;28;20025;-74
2022/04/24 12:39:53;;;;;;;1.80;0.30;;;23.30;42.70;;;;;;5018260;28;20458;-74
2022/04/24 12:42:20;;;;;;;1.45;0.17;;;23.40;40.10;;;;;;5018049;28;20121;-74
2022/04/24 12:44:45;;;;;;;1.55;0.73;;;23.40;40.80;;;;;;5018145;28;20441;-74
2022/04/24 12:47:11;;;;;;;0.32;0.20;;;23.50;41.10;;;;;;5036334;28;20025;-74
2022/04/24 12:49:37;;;;;;;1.63;0.45;;;23.60;40.80;;;;;;5035882;28;20030;-74
2022/04/24 12:52:03;;;;;;;1.55;0.40;;;23.90;39.30;;;;;;5035923;28;20022;-74
2022/04/24 12:54:29;;;;;;;1.58;0.30;;;23.90;37.60;;;;;;5035862;28;20512;-74
2022/04/24 12:56:55;;;;;;;2.10;0.20;;;23.90;38.40;;;;;;5035865;28;20026;-74